M I D A S
Marine Information and Data Acquisition System
Tripno 1210 of the Zeeleeuw from 2007-01-31 12:43:33 to 2007-01-31 15:22:51
Back to CruiseResearch ActivitiesStationsMapUnderway DataData graphs

EquipmentUnitsComment
TimeDGPSUTC
LatitudeDGPSDM.mWGS84
LongitudeDGPSDM.mWGS84
HeadingGyrodeg 
SOGDGPSknotsSpeed over ground
COGDGPSdegCourse over ground
DepthEcho soundermeters200 kHz
Missing or incorrect values are displayed as -999
Navigation data collected by the RV Zeeleeuw from 2007-01-31 07:54:49 to 2007-01-31 15:30:39
Time Latitude Longitude Heading SOG COG Depth
2007-01-31 07:55:54 51°13.599 2°56.094 128.2 -999 186 -999
2007-01-31 07:56:54 51°13.598 2°56.094 128.4 -999 85 -999
2007-01-31 07:57:54 51°13.599 2°56.094 126.7 -999 95 -999
2007-01-31 07:58:54 51°13.599 2°56.093 127.7 0.1 311 -999
2007-01-31 07:59:54 51°13.599 2°56.094 128 -999 311 -999
2007-01-31 08:00:54 51°13.599 2°56.094 128.3 -999 161 -999
2007-01-31 08:01:54 51°13.599 2°56.094 127.7 -999 73 -999
2007-01-31 08:02:54 51°13.598 2°56.095 128.3 -999 117 -999
2007-01-31 08:03:54 51°13.598 2°56.095 128.2 -999 281 -999
2007-01-31 08:04:54 51°13.598 2°56.094 127.8 -999 16 -999
2007-01-31 08:05:54 51°13.598 2°56.095 128.2 -999 298 -999
2007-01-31 08:06:54 51°13.597 2°56.096 128.1 -999 186 -999
2007-01-31 08:07:54 51°13.596 2°56.097 128 -999 131 -999
2007-01-31 08:08:54 51°13.596 2°56.097 128 -999 172 -999
2007-01-31 08:09:54 51°13.597 2°56.097 127.8 0.1 182 -999
2007-01-31 08:10:54 51°13.597 2°56.097 127.8 -999 187 -999
2007-01-31 08:11:54 51°13.598 2°56.096 127.8 -999 225 -999
2007-01-31 08:12:54 51°13.599 2°56.096 127.7 -999 192 -999
2007-01-31 08:13:54 51°13.6 2°56.095 127.7 -999 20 -999
2007-01-31 08:14:54 51°13.6 2°56.095 127.7 -999 16 -999
2007-01-31 08:15:54 51°13.601 2°56.094 127.7 -999 185 -999
2007-01-31 08:16:54 51°13.601 2°56.094 127.7 -999 246 -999
2007-01-31 08:17:54 51°13.6 2°56.094 127.5 -999 209 -999
2007-01-31 08:18:54 51°13.6 2°56.094 127.5 -999 55 -999
2007-01-31 08:19:54 51°13.6 2°56.094 127.5 -999 212 -999
2007-01-31 08:20:54 51°13.6 2°56.093 127.4 -999 355 -999
2007-01-31 08:21:54 51°13.599 2°56.093 127.4 -999 358 -999
2007-01-31 08:22:54 51°13.599 2°56.093 127.3 -999 134 -999
2007-01-31 08:23:54 51°13.599 2°56.093 127.3 -999 73 -999
2007-01-31 08:24:54 51°13.6 2°56.093 127.3 -999 143 -999
2007-01-31 08:25:54 51°13.599 2°56.095 127.3 -999 37 -999
2007-01-31 08:26:54 51°13.598 2°56.095 127.3 -999 284 -999
2007-01-31 08:27:54 51°13.599 2°56.095 127.2 -999 165 -999
2007-01-31 08:28:54 51°13.599 2°56.095 126.8 -999 289 -999
2007-01-31 08:29:54 51°13.599 2°56.096 126.9 -999 145 -999
2007-01-31 08:30:54 51°13.598 2°56.096 127.2 -999 196 7.6
2007-01-31 08:31:54 51°13.597 2°56.096 127.3 -999 89 7.6
2007-01-31 08:32:54 51°13.597 2°56.096 127.3 -999 61 7.6
2007-01-31 08:33:54 51°13.597 2°56.097 127.2 -999 258 7.6
2007-01-31 08:34:54 51°13.597 2°56.097 127.1 -999 122 7.7
2007-01-31 08:35:54 51°13.597 2°56.097 127.3 -999 219 7.8
2007-01-31 08:36:54 51°13.597 2°56.097 127.1 -999 322 7.8
2007-01-31 08:37:53 51°13.597 2°56.096 127.1 -999 232 7.8
2007-01-31 08:38:54 51°13.597 2°56.097 127.2 -999 164 7.8
2007-01-31 08:39:54 51°13.597 2°56.096 127.2 -999 167 7.8
2007-01-31 08:40:54 51°13.596 2°56.097 124.9 -999 180 7.8
2007-01-31 08:41:54 51°13.596 2°56.097 124.5 -999 2 7.8
2007-01-31 08:42:54 51°13.597 2°56.096 117.2 0.1 239 7.9
2007-01-31 08:43:54 51°13.606 2°56.064 115.4 2.6 294 -999
2007-01-31 08:44:54 51°13.633 2°55.974 118.3 4.4 296 -999
2007-01-31 08:45:54 51°13.667 2°55.866 113.2 4.4 293 -999
2007-01-31 08:46:53 51°13.683 2°55.778 95 2.8 278 11.4
2007-01-31 08:47:54 51°13.683 2°55.728 68.7 0.6 284 -999
2007-01-31 08:48:54 51°13.7 2°55.73 11.6 2 356 -999
2007-01-31 08:49:54 51°13.758 2°55.689 336.9 5.7 333 11.3
2007-01-31 08:50:54 51°13.868 2°55.606 338.6 8.3 336 -999
2007-01-31 08:51:53 51°14.001 2°55.515 342.8 9 341 12.5
2007-01-31 08:52:54 51°14.141 2°55.406 335.4 9.3 331 -999
2007-01-31 08:53:54 51°14.265 2°55.246 319.8 10 315 11.4
2007-01-31 08:54:54 51°14.389 2°55.043 316.3 11.2 316 11.6
2007-01-31 08:55:53 51°14.511 2°54.823 310.6 11.3 307 11
2007-01-31 08:56:54 51°14.616 2°54.571 304.3 11.1 302 11
2007-01-31 08:57:53 51°14.708 2°54.32 301.6 11.1 299 11.3
2007-01-31 08:58:53 51°14.783 2°54.081 293.3 9.4 287 11.1
2007-01-31 08:59:53 51°14.788 2°53.84 271.9 9.1 268 11
2007-01-31 09:00:53 51°14.784 2°53.598 273.1 9.1 270 12.1
2007-01-31 09:01:53 51°14.781 2°53.358 274.2 9.2 271 12.6
2007-01-31 09:02:53 51°14.773 2°53.118 265.3 9.1 260 10.8
2007-01-31 09:03:53 51°14.733 2°52.882 261.1 9.2 258 10.9
2007-01-31 09:04:54 51°14.718 2°52.634 273.2 9.3 268 11.2
2007-01-31 09:05:53 51°14.711 2°52.391 272.2 9.3 268 11.2
2007-01-31 09:06:53 51°14.703 2°52.144 271.6 9.2 266 11.4
2007-01-31 09:07:53 51°14.698 2°51.902 272.8 9.1 267 11.8
2007-01-31 09:08:53 51°14.69 2°51.664 271.7 8.8 267 11.8
2007-01-31 09:09:53 51°14.685 2°51.435 272.1 7 268 12.1
2007-01-31 09:10:53 51°14.669 2°51.333 246.5 1.6 216 12.1
2007-01-31 09:11:53 51°14.664 2°51.353 189.9 1.2 89 12.5
2007-01-31 09:12:53 51°14.661 2°51.383 167.1 1.2 95 12.4
2007-01-31 09:13:53 51°14.656 2°51.414 167.1 1.3 111 12.2
2007-01-31 09:14:53 51°14.648 2°51.443 178.7 1.2 119 12
2007-01-31 09:15:53 51°14.64 2°51.471 186.2 1.1 112 12.2
2007-01-31 09:16:53 51°14.635 2°51.501 186.8 1.2 115 12
2007-01-31 09:17:53 51°14.63 2°51.533 188.3 1.3 97 12.2
2007-01-31 09:18:53 51°14.627 2°51.568 185.8 1.3 97 12
2007-01-31 09:19:53 51°14.625 2°51.603 181.3 1.2 94 12
2007-01-31 09:20:54 51°14.623 2°51.64 176.9 1.3 94 12
2007-01-31 09:21:53 51°14.621 2°51.676 177.8 1.3 95 11.9
2007-01-31 09:22:54 51°14.619 2°51.714 178 1.3 95 11.9
2007-01-31 09:23:53 51°14.616 2°51.749 183.1 1.5 97 11.9
2007-01-31 09:24:53 51°14.612 2°51.785 185.3 1.3 97 12.1
2007-01-31 09:25:53 51°14.609 2°51.822 183 1.4 98 11.8
2007-01-31 09:26:53 51°14.606 2°51.858 184.3 1.4 98 12
2007-01-31 09:27:53 51°14.603 2°51.897 185.8 1.4 97 11.8
2007-01-31 09:28:53 51°14.601 2°51.933 187.9 1.4 95 11.9
2007-01-31 09:29:53 51°14.598 2°51.971 188.5 1.4 99 11.8
2007-01-31 09:30:53 51°14.593 2°52.008 190.2 1.5 99 12.1
2007-01-31 09:31:53 51°14.589 2°52.044 190 1.4 96 11.9
2007-01-31 09:32:53 51°14.587 2°52.08 189 1.4 95 11.6
2007-01-31 09:33:53 51°14.583 2°52.12 189.5 1.4 104 11.2
2007-01-31 09:34:53 51°14.578 2°52.159 190.7 1.4 99 11.8
2007-01-31 09:35:53 51°14.575 2°52.195 195.7 1.5 95 11.9
2007-01-31 09:36:53 51°14.573 2°52.236 188.7 1.8 89 12
2007-01-31 09:37:53 51°14.573 2°52.28 183.2 1.7 88 11.9
2007-01-31 09:38:54 51°14.575 2°52.325 178.2 1.8 85 11.9
2007-01-31 09:39:53 51°14.574 2°52.371 180.7 1.9 87 12.1
2007-01-31 09:40:54 51°14.574 2°52.418 181.2 1.8 88 12
2007-01-31 09:41:53 51°14.576 2°52.464 176.2 1.8 89 11.8
2007-01-31 09:42:53 51°14.553 2°52.499 206.1 2.3 181 11.9
2007-01-31 09:43:53 51°14.539 2°52.44 281.3 4.1 304 11.8
2007-01-31 09:44:53 51°14.628 2°52.284 305.7 11.1 306 11.8
2007-01-31 09:45:54 51°14.747 2°52.011 304.1 12.8 305 12.4
2007-01-31 09:46:53 51°14.868 2°51.74 304.8 12.7 306 13
2007-01-31 09:47:53 51°14.994 2°51.468 305.7 12.8 306 14
2007-01-31 09:48:53 51°15.121 2°51.197 305.9 12.7 307 14.5
2007-01-31 09:49:53 51°15.246 2°50.931 302.6 11.9 304 14.9
2007-01-31 09:50:53 51°15.346 2°50.688 300.6 10.7 304 15.3
2007-01-31 09:51:53 51°15.418 2°50.504 287.4 4.5 293 15.5
2007-01-31 09:52:54 51°15.416 2°50.463 242.3 0.7 116 15.5
2007-01-31 09:53:53 51°15.418 2°50.505 229.4 2.1 83 15.5
2007-01-31 09:54:54 51°15.427 2°50.562 202.2 2.2 73 15.6
2007-01-31 09:55:53 51°15.434 2°50.62 173.7 2.2 78 15.7
2007-01-31 09:56:54 51°15.441 2°50.681 160.9 2.3 81 15.6
2007-01-31 09:57:53 51°15.447 2°50.739 161.9 2.4 84 15.6
2007-01-31 09:58:53 51°15.452 2°50.796 167.4 2.2 86 15.6
2007-01-31 09:59:53 51°15.455 2°50.853 175.1 2.2 84 15.7
2007-01-31 10:00:53 51°15.458 2°50.91 174.9 2.1 92 15.6
2007-01-31 10:01:53 51°15.437 2°50.959 197.4 2.5 159 15.4
2007-01-31 10:02:53 51°15.365 2°50.948 213.4 5.2 213 15.5
2007-01-31 10:03:53 51°15.39 2°50.839 310.9 7.1 319 15.6
2007-01-31 10:04:53 51°15.476 2°50.656 294.2 9.3 296 15.7
2007-01-31 10:05:53 51°15.541 2°50.426 290.7 9.7 293 15.7
2007-01-31 10:06:53 51°15.606 2°50.189 291.9 9.8 294 15.7
2007-01-31 10:07:53 51°15.673 2°49.954 292.1 9.7 294 15.6
2007-01-31 10:08:53 51°15.741 2°49.722 292.5 9.7 295 14.5
2007-01-31 10:09:53 51°15.807 2°49.491 290.5 9.5 292 13.4
2007-01-31 10:10:53 51°15.863 2°49.253 288.5 9.6 291 13.3
2007-01-31 10:11:53 51°15.92 2°49.013 289.2 9.7 291 14.5
2007-01-31 10:12:53 51°15.976 2°48.775 285 9.4 283 15.5
2007-01-31 10:13:53 51°15.988 2°48.529 272.1 9.2 272 16.7
2007-01-31 10:14:53 51°15.996 2°48.287 273.1 8.3 273 17.5
2007-01-31 10:15:53 51°15.96 2°48.203 220.8 2.3 185 17.9
2007-01-31 10:16:53 51°15.967 2°48.258 193.4 2.9 59 17.4
2007-01-31 10:17:53 51°15.986 2°48.318 171.6 2.3 66 17.6
2007-01-31 10:18:53 51°15.997 2°48.378 161.6 2.3 81 17.4
2007-01-31 10:19:53 51°15.996 2°48.442 173.1 2.7 114 17.5
2007-01-31 10:20:53 51°15.951 2°48.476 209.7 3.3 194 17.1
2007-01-31 10:21:53 51°15.929 2°48.402 270.7 4.1 277 16.9
2007-01-31 10:22:53 51°15.925 2°48.284 262.1 4.6 262 17.3
2007-01-31 10:23:53 51°15.919 2°48.203 262.6 2 261 17.5
2007-01-31 10:24:53 51°15.902 2°48.165 242.8 2 229 17.4
2007-01-31 10:25:53 51°15.876 2°48.122 241.6 2.6 226 17.1
2007-01-31 10:26:53 51°15.845 2°48.06 246 3.1 235 17.1
2007-01-31 10:27:53 51°15.817 2°47.992 246.9 3 234 17
2007-01-31 10:28:53 51°15.792 2°47.925 250.3 3 246 17.2
2007-01-31 10:29:53 51°15.772 2°47.847 254.4 3.1 249 17.3
2007-01-31 10:30:53 51°15.753 2°47.773 254.9 3.1 251 17.3
2007-01-31 10:31:53 51°15.735 2°47.699 253.1 3 248 16.9
2007-01-31 10:32:53 51°15.715 2°47.625 252.4 2.9 250 17
2007-01-31 10:33:53 51°15.693 2°47.555 252.5 3.2 244 17.2
2007-01-31 10:34:53 51°15.668 2°47.485 250.9 3 239 17.3
2007-01-31 10:35:53 51°15.644 2°47.409 251.4 3.4 245 17
2007-01-31 10:36:53 51°15.619 2°47.337 249.3 2.6 235 16.6
2007-01-31 10:37:53 51°15.594 2°47.278 251.1 2.7 237 17
2007-01-31 10:38:53 51°15.57 2°47.217 251.7 2.9 241 17
2007-01-31 10:39:53 51°15.551 2°47.149 254.7 2.8 245 16.9
2007-01-31 10:40:53 51°15.531 2°47.087 252.7 2.4 243 17
2007-01-31 10:41:53 51°15.512 2°47.026 253.2 2.6 245 17
2007-01-31 10:42:53 51°15.492 2°46.964 254.2 2.6 245 17
2007-01-31 10:43:53 51°15.473 2°46.902 255.3 2.6 246 17
2007-01-31 10:44:53 51°15.458 2°46.84 258 2.3 251 16.7
2007-01-31 10:45:53 51°15.465 2°46.783 285.4 2.2 307 17.3
2007-01-31 10:46:53 51°15.497 2°46.776 317.6 2.3 22 17.7
2007-01-31 10:47:53 51°15.529 2°46.814 335.6 2.3 48 17.9
2007-01-31 10:48:53 51°15.553 2°46.863 336.8 2.5 55 17.5
2007-01-31 10:49:53 51°15.572 2°46.915 336 2.3 66 17.8
2007-01-31 10:50:53 51°15.604 2°46.966 359.7 3.4 38 18
2007-01-31 10:51:54 51°15.652 2°47.07 65.8 5.7 73 17.9
2007-01-31 10:52:54 51°15.651 2°47.267 103 11.1 94 17.6
2007-01-31 10:53:54 51°15.634 2°47.643 100.2 14.7 96 16.1
2007-01-31 10:54:54 51°15.614 2°48.041 102.1 14.7 99 14.4
2007-01-31 10:55:54 51°15.583 2°48.427 100.8 14.4 100 13.5
2007-01-31 10:56:54 51°15.548 2°48.804 104.7 14.6 104 13.4
2007-01-31 10:57:54 51°15.514 2°49.194 103 15 97 15.3
2007-01-31 10:58:54 51°15.485 2°49.582 104.3 14.3 94 15.9
2007-01-31 10:59:54 51°15.459 2°49.97 101.9 15.3 93 15.8
2007-01-31 11:00:54 51°15.432 2°50.364 103.4 14.6 97 15.9
2007-01-31 11:01:54 51°15.399 2°50.755 104.3 15 92 15.6
2007-01-31 11:02:54 51°15.37 2°51.146 104.6 14.5 98 15.6
2007-01-31 11:03:54 51°15.34 2°51.532 104.5 14.7 96 15.3
2007-01-31 11:04:54 51°15.294 2°51.913 117.3 14.6 105 14.8
2007-01-31 11:05:54 51°15.198 2°52.26 123.1 14.6 115 13.9
2007-01-31 11:06:54 51°15.109 2°52.618 119.5 14.6 108 13.6
2007-01-31 11:07:54 51°15.018 2°52.968 121.7 14.3 118 13.3
2007-01-31 11:08:54 51°14.923 2°53.309 124.7 14.1 114 13.1
2007-01-31 11:09:54 51°14.826 2°53.65 122.8 14.2 113 12.4
2007-01-31 11:10:54 51°14.733 2°53.988 123.3 14 110 13.2
2007-01-31 11:11:54 51°14.639 2°54.333 124.8 14 115 13
2007-01-31 11:12:54 51°14.529 2°54.67 126.9 14.2 121 12.9
2007-01-31 11:13:54 51°14.406 2°54.997 131.7 14.1 126 13.4
2007-01-31 11:14:54 51°14.269 2°55.27 136.9 12 135 14
2007-01-31 11:15:54 51°14.117 2°55.427 158.8 9.3 155 14.4
2007-01-31 11:16:54 51°13.997 2°55.516 158 7.3 155 14.2
2007-01-31 11:17:54 51°13.891 2°55.599 158.4 6.9 154 13.6
2007-01-31 11:18:54 51°13.79 2°55.689 153 6.9 148 12.7
2007-01-31 11:19:54 51°13.703 2°55.811 133.9 7 131 -999
2007-01-31 11:20:54 51°13.645 2°55.945 127.4 5.4 124 12.4
2007-01-31 11:21:54 51°13.606 2°56.048 118.3 3.9 115 12.8
2007-01-31 11:22:54 51°13.598 2°56.091 107.3 0.2 106 10.1
2007-01-31 11:23:54 51°13.597 2°56.095 112.6 0.1 292 9.9
2007-01-31 11:24:54 51°13.598 2°56.096 123.5 -999 350 4.7
2007-01-31 11:25:54 51°13.598 2°56.095 126.6 -999 263 9.8
2007-01-31 11:26:54 51°13.597 2°56.094 128.8 -999 296 9.8
2007-01-31 11:27:54 51°13.598 2°56.095 128.1 0.1 78 9.8
2007-01-31 11:28:54 51°13.597 2°56.095 126.9 -999 211 9.8
2007-01-31 11:29:54 51°13.597 2°56.095 126.8 -999 307 9.7
2007-01-31 11:30:54 51°13.597 2°56.094 126.8 -999 349 9.8
2007-01-31 11:31:54 51°13.598 2°56.094 126.7 -999 338 9.7
2007-01-31 11:32:54 51°13.597 2°56.095 126.6 -999 158 9.7
2007-01-31 11:33:54 51°13.597 2°56.095 126.6 -999 178 9.7
2007-01-31 11:34:54 51°13.598 2°56.095 126.6 -999 197 9.7
2007-01-31 11:35:54 51°13.598 2°56.095 126.6 -999 160 9.7
2007-01-31 11:36:54 51°13.593 2°56.093 126.6 -999 320 9.6
2007-01-31 11:37:54 51°13.594 2°56.093 126.5 -999 13 9.7
2007-01-31 11:38:54 51°13.595 2°56.094 126.5 -999 314 9.6
2007-01-31 11:39:54 51°13.596 2°56.094 126.5 -999 162 9.7
2007-01-31 11:40:54 51°13.597 2°56.094 126.5 -999 235 9.7
2007-01-31 11:41:54 51°13.598 2°56.094 126.4 -999 19 9.7
2007-01-31 11:42:54 51°13.599 2°56.095 126.4 -999 310 9.7
2007-01-31 11:43:54 51°13.598 2°56.095 126.4 -999 162 9.8
2007-01-31 11:44:54 51°13.598 2°56.095 126.4 -999 135 9.7
2007-01-31 11:45:54 51°13.598 2°56.095 126.3 -999 130 9.7
2007-01-31 11:46:54 51°13.599 2°56.095 126.3 -999 250 9.7
2007-01-31 11:47:54 51°13.6 2°56.095 126.3 -999 204 9.7
2007-01-31 11:48:54 51°13.6 2°56.095 126.3 -999 231 9.7
2007-01-31 11:49:54 51°13.6 2°56.096 126.3 -999 233 9.7
2007-01-31 11:50:54 51°13.601 2°56.096 126.3 -999 257 9.7
2007-01-31 11:51:54 51°13.601 2°56.096 126.4 -999 188 9.6
2007-01-31 11:52:54 51°13.6 2°56.096 126.4 -999 25 9.6
2007-01-31 11:53:54 51°13.598 2°56.096 126.4 -999 200 9.7
2007-01-31 11:54:54 51°13.602 2°56.096 126.4 -999 259 9.6
2007-01-31 11:55:54 51°13.601 2°56.096 126.5 -999 265 9.6
2007-01-31 11:56:54 51°13.601 2°56.096 126.5 -999 320 9.7
2007-01-31 11:57:54 51°13.601 2°56.097 126.5 -999 181 9.6
2007-01-31 11:58:54 51°13.601 2°56.097 126.6 -999 188 9.7
2007-01-31 11:59:54 51°13.601 2°56.097 126.6 -999 308 9.7
2007-01-31 12:00:54 51°13.6 2°56.096 126.6 -999 312 9.6
2007-01-31 12:01:54 51°13.601 2°56.096 126.6 -999 347 9.6
2007-01-31 12:02:54 51°13.601 2°56.096 126.6 -999 327 9.6
2007-01-31 12:03:54 51°13.601 2°56.095 126.6 -999 210 9.6
2007-01-31 12:04:54 51°13.6 2°56.094 126.6 -999 172 9.6
2007-01-31 12:05:54 51°13.599 2°56.094 126.6 -999 322 9.6
2007-01-31 12:06:54 51°13.599 2°56.094 126.7 -999 195 9.6
2007-01-31 12:07:54 51°13.599 2°56.094 126.7 -999 229 9.6
2007-01-31 12:08:54 51°13.599 2°56.095 126.8 -999 146 9.6
2007-01-31 12:09:54 51°13.598 2°56.095 126.8 -999 227 9.6
2007-01-31 12:10:54 51°13.598 2°56.095 126.8 -999 251 9.6
2007-01-31 12:11:54 51°13.598 2°56.095 126.9 -999 5 9.5
2007-01-31 12:12:54 51°13.598 2°56.095 126.9 -999 343 9.7
2007-01-31 12:13:54 51°13.598 2°56.094 127 -999 202 9.5
2007-01-31 12:14:54 51°13.598 2°56.095 127 -999 155 9.6
2007-01-31 12:15:54 51°13.598 2°56.095 127 -999 318 9.5
2007-01-31 12:16:54 51°13.597 2°56.095 127 -999 326 9.6
2007-01-31 12:17:54 51°13.598 2°56.095 127 -999 207 9.6
2007-01-31 12:18:54 51°13.597 2°56.095 127 -999 333 9.6
2007-01-31 12:19:54 51°13.597 2°56.095 127.1 -999 256 9.5
2007-01-31 12:20:54 51°13.597 2°56.095 127.1 -999 328 9.6
2007-01-31 12:21:54 51°13.598 2°56.095 127.1 -999 45 9.5
2007-01-31 12:22:54 51°13.597 2°56.096 127 -999 128 9.5
2007-01-31 12:23:54 51°13.597 2°56.095 127 -999 202 9.5
2007-01-31 12:24:54 51°13.597 2°56.095 127.1 -999 326 9.5
2007-01-31 12:25:54 51°13.597 2°56.095 127.1 -999 285 9.5
2007-01-31 12:26:54 51°13.597 2°56.095 127.1 -999 325 9.5
2007-01-31 12:27:54 51°13.598 2°56.095 127.1 -999 289 9.5
2007-01-31 12:28:54 51°13.599 2°56.096 127.1 -999 181 9.5
2007-01-31 12:29:54 51°13.599 2°56.095 127.1 -999 126 9.4
2007-01-31 12:30:54 51°13.599 2°56.095 127.1 -999 140 9.4
2007-01-31 12:31:54 51°13.599 2°56.094 127.1 -999 263 9.4
2007-01-31 12:32:54 51°13.598 2°56.095 127.1 -999 286 9.3
2007-01-31 12:33:54 51°13.598 2°56.095 127.1 -999 315 9.3
2007-01-31 12:34:54 51°13.598 2°56.095 127.1 -999 332 9.4
2007-01-31 12:35:54 51°13.598 2°56.095 127.1 -999 284 9.4
2007-01-31 12:36:54 51°13.598 2°56.096 127.1 -999 272 9.4
2007-01-31 12:37:54 51°13.599 2°56.096 127.1 -999 86 9.4
2007-01-31 12:38:54 51°13.599 2°56.097 127.2 -999 291 9.4
2007-01-31 12:39:54 51°13.599 2°56.096 127.3 -999 289 9.4
2007-01-31 12:40:54 51°13.599 2°56.096 127.3 -999 322 9.4
2007-01-31 12:41:54 51°13.599 2°56.096 127.3 -999 187 9.4
2007-01-31 12:42:54 51°13.599 2°56.096 126.4 -999 300 9.4
2007-01-31 12:43:54 51°13.598 2°56.096 126.8 -999 101 9.4
2007-01-31 12:44:54 51°13.598 2°56.097 118.5 0.1 203 9.5
2007-01-31 12:45:54 51°13.61 2°56.062 119.2 3.5 298 -999
2007-01-31 12:46:54 51°13.647 2°55.946 122.5 5.7 300 -999
2007-01-31 12:47:54 51°13.689 2°55.824 119.4 4.4 296 4.8
2007-01-31 12:48:54 51°13.707 2°55.745 100.9 1.8 285 4.7
2007-01-31 12:49:54 51°13.715 2°55.746 58.5 0.5 31 -999
2007-01-31 12:50:54 51°13.709 2°55.733 43.2 1.1 223 -999
2007-01-31 12:51:54 51°13.717 2°55.731 14.5 1.6 4 4.7
2007-01-31 12:52:54 51°13.772 2°55.693 335.4 5.4 333 12.9
2007-01-31 12:53:54 51°13.87 2°55.612 336.9 7.3 333 12.9
2007-01-31 12:54:54 51°13.984 2°55.526 340.2 7.7 337 -999
2007-01-31 12:55:54 51°14.1 2°55.44 337.7 7.7 333 -999
2007-01-31 12:56:54 51°14.208 2°55.332 328.7 7.6 324 13.7
2007-01-31 12:57:54 51°14.308 2°55.178 316.8 9.5 313 13.5
2007-01-31 12:58:54 51°14.429 2°54.971 315 11.1 316 12.8
2007-01-31 12:59:54 51°14.562 2°54.758 312.8 11.4 315 11.7
2007-01-31 13:00:54 51°14.654 2°54.513 287.4 10.7 286 12
2007-01-31 13:01:54 51°14.698 2°54.236 286.4 10.8 288 12.4
2007-01-31 13:02:54 51°14.742 2°53.959 279.7 10.8 278 12.3
2007-01-31 13:03:54 51°14.778 2°53.674 283.6 11 283 12.8
2007-01-31 13:04:54 51°14.82 2°53.387 283.8 11.1 283 13.3
2007-01-31 13:05:54 51°14.865 2°53.101 284.6 11 284 13.1
2007-01-31 13:06:54 51°14.908 2°52.818 284.5 11 283 13.4
2007-01-31 13:07:54 51°14.954 2°52.533 285.2 11.1 284 12.4
2007-01-31 13:08:54 51°15 2°52.25 284.6 11.1 285 12.8
2007-01-31 13:09:54 51°15.045 2°51.97 285.1 10.9 285 13.5
2007-01-31 13:10:54 51°15.092 2°51.686 285.4 11 285 13.9
2007-01-31 13:11:54 51°15.139 2°51.404 285.4 11 286 14.1
2007-01-31 13:12:54 51°15.188 2°51.122 285.2 10.9 284 14.5
2007-01-31 13:13:54 51°15.234 2°50.839 285 11 285 14.7
2007-01-31 13:14:54 51°15.281 2°50.557 285.5 10.8 284 14.8
2007-01-31 13:15:54 51°15.328 2°50.275 285.1 11.1 284 15
2007-01-31 13:16:54 51°15.375 2°49.992 285.9 11.1 285 15
2007-01-31 13:17:54 51°15.422 2°49.71 285.3 11 284 15.1
2007-01-31 13:18:54 51°15.468 2°49.425 285 11.1 283 15
2007-01-31 13:19:54 51°15.514 2°49.14 285.4 11.1 284 14.6
2007-01-31 13:20:54 51°15.561 2°48.861 285.9 10.9 286 12.7
2007-01-31 13:21:54 51°15.607 2°48.575 284.8 11.3 284 12.5
2007-01-31 13:22:54 51°15.654 2°48.288 285.4 11.1 285 13.1
2007-01-31 13:23:54 51°15.702 2°48.014 286 10.1 286 14.6
2007-01-31 13:24:54 51°15.733 2°47.839 277.9 3.9 285 15.8
2007-01-31 13:25:54 51°15.741 2°47.815 246.8 0.6 37 16
2007-01-31 13:26:54 51°15.752 2°47.841 222.2 1.7 59 16.2
2007-01-31 13:27:54 51°15.769 2°47.879 194 1.8 53 4.8
2007-01-31 13:28:54 51°15.788 2°47.914 172.7 1.5 49 16
2007-01-31 13:29:54 51°15.806 2°47.948 155.3 1.6 50 16.6
2007-01-31 13:30:54 51°15.822 2°47.983 145.8 1.6 59 16.2
2007-01-31 13:31:54 51°15.836 2°48.021 147.3 1.6 62 16
2007-01-31 13:32:54 51°15.846 2°48.058 154.9 1.6 73 16.2
2007-01-31 13:33:54 51°15.854 2°48.094 160.1 1.3 70 16.1
2007-01-31 13:34:54 51°15.865 2°48.129 164.3 1.6 63 16.2
2007-01-31 13:35:54 51°15.875 2°48.164 161.5 1.3 69 16
2007-01-31 13:36:54 51°15.883 2°48.198 162.2 1.4 65 16.1
2007-01-31 13:37:54 51°15.893 2°48.232 162.2 1.6 66 16.1
2007-01-31 13:38:54 51°15.902 2°48.267 161.3 1.3 67 16.2
2007-01-31 13:39:54 51°15.91 2°48.304 162.9 1.5 73 16
2007-01-31 13:40:54 51°15.918 2°48.338 162.9 1.3 66 16.1
2007-01-31 13:41:54 51°15.927 2°48.37 164.4 1.4 62 16.2
2007-01-31 13:42:54 51°15.935 2°48.401 166.3 1.3 68 16
2007-01-31 13:43:54 51°15.944 2°48.436 166.4 1.5 66 16.2
2007-01-31 13:44:54 51°15.951 2°48.47 166.4 1.3 73 16
2007-01-31 13:45:54 51°15.96 2°48.504 165.4 1.4 69 15.8
2007-01-31 13:46:54 51°15.967 2°48.539 168.8 1.5 70 15.9
2007-01-31 13:47:54 51°15.975 2°48.575 166.9 1.2 71 15.4
2007-01-31 13:48:54 51°15.983 2°48.61 163.3 1.4 70 15.5
2007-01-31 13:49:54 51°15.988 2°48.644 165.7 1.3 78 15.4
2007-01-31 13:50:54 51°15.993 2°48.678 168.1 1.4 79 15.3
2007-01-31 13:51:54 51°15.998 2°48.71 166.5 1.4 73 15
2007-01-31 13:52:54 51°16.002 2°48.741 166.8 1.2 76 14.9
2007-01-31 13:53:54 51°16.007 2°48.771 162.8 1 74 14.8
2007-01-31 13:54:54 51°15.996 2°48.801 178.7 3.2 172 14.4
2007-01-31 13:55:54 51°15.944 2°48.703 245.8 7.7 249 14.5
2007-01-31 13:56:54 51°15.921 2°48.461 266.1 9.2 265 15.1
2007-01-31 13:57:54 51°15.908 2°48.335 251.9 2.1 250 15.7
2007-01-31 13:58:54 51°15.906 2°48.335 205.8 0.8 79 15.5
2007-01-31 13:59:54 51°15.895 2°48.363 176.8 2.7 155 15.1
2007-01-31 14:00:54 51°15.834 2°48.338 224.2 4.5 227 14.7
2007-01-31 14:01:54 51°15.821 2°48.242 268.5 3.6 273 14.8
2007-01-31 14:02:54 51°15.809 2°48.152 246.8 3.6 245 14.9
2007-01-31 14:03:54 51°15.785 2°48.078 249.6 3.3 255 15.1
2007-01-31 14:04:54 51°15.751 2°47.989 234.3 4.2 234 14.9
2007-01-31 14:05:54 51°15.737 2°47.895 261.2 3.4 262 15
2007-01-31 14:06:54 51°15.726 2°47.811 255 3.2 256 15.1
2007-01-31 14:07:54 51°15.712 2°47.728 254.7 2.9 253 15.2
2007-01-31 14:08:54 51°15.699 2°47.65 254.2 3.1 254 15.5
2007-01-31 14:09:54 51°15.674 2°47.556 248.1 3.6 245 15.6
2007-01-31 14:10:54 51°15.648 2°47.464 247.3 3.9 245 15.5
2007-01-31 14:11:54 51°15.619 2°47.37 243.1 3.9 242 15.4
2007-01-31 14:12:54 51°15.586 2°47.291 237.9 3.4 233 15.3
2007-01-31 14:13:54 51°15.552 2°47.22 237.3 3 225 15.2
2007-01-31 14:14:54 51°15.521 2°47.156 239 3.2 237 15.1
2007-01-31 14:15:54 51°15.49 2°47.088 237.9 3.1 236 14.6
2007-01-31 14:16:54 51°15.46 2°47.018 242.8 3.3 243 14.8
2007-01-31 14:17:54 51°15.436 2°46.937 246.3 3.4 243 14.7
2007-01-31 14:18:54 51°15.414 2°46.851 248.5 3.4 248 14.7
2007-01-31 14:19:54 51°15.393 2°46.771 245.4 3.3 245 14.8
2007-01-31 14:20:54 51°15.366 2°46.693 243.9 3.2 239 14.9
2007-01-31 14:21:54 51°15.34 2°46.623 245.7 3 241 14.8
2007-01-31 14:22:54 51°15.318 2°46.546 245.9 3.2 240 14.9
2007-01-31 14:23:54 51°15.293 2°46.469 246.7 3.2 244 14.9
2007-01-31 14:24:54 51°15.269 2°46.391 244.9 3.5 241 14.8
2007-01-31 14:25:54 51°15.243 2°46.307 245 3.5 244 14.6
2007-01-31 14:26:54 51°15.216 2°46.236 242.7 2.9 234 14.6
2007-01-31 14:27:54 51°15.192 2°46.176 245.3 2.9 242 14.9
2007-01-31 14:28:54 51°15.169 2°46.103 245.3 3 242 14.8
2007-01-31 14:29:54 51°15.141 2°46.032 243.6 3.3 244 14.7
2007-01-31 14:30:54 51°15.133 2°45.959 271.4 2 284 15.1
2007-01-31 14:31:54 51°15.155 2°45.916 299.6 2.2 315 15.3
2007-01-31 14:32:54 51°15.19 2°45.88 323.7 2.9 339 15.5
2007-01-31 14:33:54 51°15.243 2°45.878 3.9 3.1 9 16.4
2007-01-31 14:34:54 51°15.282 2°45.893 3.4 2 11 16.5
2007-01-31 14:35:54 51°15.308 2°45.906 354.6 1.4 26 16.4
2007-01-31 14:36:54 51°15.326 2°45.918 346.7 1.1 32 16.1
2007-01-31 14:37:54 51°15.339 2°45.933 338.9 1.1 39 16.5
2007-01-31 14:38:54 51°15.349 2°45.955 342.5 0.9 58 16.9
2007-01-31 14:39:54 51°15.359 2°45.977 359.9 1.3 35 16.4
2007-01-31 14:40:54 51°15.393 2°46.002 24.5 3.3 30 16.3
2007-01-31 14:41:54 51°15.423 2°46.092 90.2 4.5 84 16.9
2007-01-31 14:42:54 51°15.429 2°46.23 92.9 5.6 87 16.3
2007-01-31 14:43:54 51°15.438 2°46.384 89.7 6 84 16.1
2007-01-31 14:44:54 51°15.447 2°46.544 90.3 6.1 86 15.8
2007-01-31 14:45:54 51°15.453 2°46.705 94.9 6.1 91 15.3
2007-01-31 14:46:54 51°15.45 2°46.866 98 6.1 92 14.7
2007-01-31 14:47:54 51°15.451 2°47.028 95.1 6.1 88 14.1
2007-01-31 14:48:54 51°15.452 2°47.188 95 6 88 13.5
2007-01-31 14:49:54 51°15.454 2°47.38 93.6 8.6 90 12.8
2007-01-31 14:50:54 51°15.457 2°47.624 94 9.5 88 12.1
2007-01-31 14:51:54 51°15.459 2°47.878 93.1 9.6 92 11.4
2007-01-31 14:52:54 51°15.462 2°48.133 95.4 9.6 88 11.1
2007-01-31 14:53:54 51°15.461 2°48.39 95.5 9.8 94 11
2007-01-31 14:54:54 51°15.46 2°48.646 96.1 9.6 91 11.5
2007-01-31 14:55:54 51°15.457 2°48.901 96.3 9.7 87 12.8
2007-01-31 14:56:54 51°15.432 2°49.152 108.3 9.6 111 13.8
2007-01-31 14:57:54 51°15.388 2°49.397 109.8 9.6 102 13.8
2007-01-31 14:58:54 51°15.348 2°49.643 106.6 9.6 103 13.6
2007-01-31 14:59:54 51°15.312 2°49.891 107.9 9.6 103 13.7
2007-01-31 15:00:54 51°15.272 2°50.155 106.7 11.8 104 13.6
2007-01-31 15:01:54 51°15.223 2°50.487 108.2 12.8 103 13.3
2007-01-31 15:02:54 51°15.179 2°50.769 108.1 9.7 101 13.3
2007-01-31 15:03:54 51°15.147 2°50.978 109.1 6.9 105 13.2
2007-01-31 15:04:54 51°15.119 2°51.141 109.9 6.1 103 12.9
2007-01-31 15:05:54 51°15.093 2°51.299 107 7.3 105 12.8
2007-01-31 15:06:54 51°15.061 2°51.54 104.8 10.3 101 12.4
2007-01-31 15:07:54 51°15.043 2°51.82 98.4 10.5 95 12
2007-01-31 15:08:54 51°15.025 2°52.104 99.5 10.7 96 11.5
2007-01-31 15:09:54 51°15.005 2°52.386 102.3 10.6 100 11.4
2007-01-31 15:10:54 51°14.977 2°52.645 104.3 8.1 100 12
2007-01-31 15:11:54 51°14.943 2°52.826 117.7 6.4 116 11.7
2007-01-31 15:12:54 51°14.886 2°52.961 130 5.9 128 11.9
2007-01-31 15:13:54 51°14.817 2°53.116 127.7 8 122 11.6
2007-01-31 15:14:54 51°14.731 2°53.318 125.1 10.2 128 10.1
2007-01-31 15:15:54 51°14.64 2°53.571 117.7 11.3 106 9.1
2007-01-31 15:16:54 51°14.581 2°53.866 109.5 12 110 10.7
2007-01-31 15:17:54 51°14.522 2°54.161 110.3 11.8 107 11.6
2007-01-31 15:18:54 51°14.469 2°54.455 107.2 11.2 106 11.2
2007-01-31 15:19:54 51°14.424 2°54.754 107.3 11.7 102 11.4
2007-01-31 15:20:54 51°14.363 2°55.052 114.7 11.7 115 10.6
2007-01-31 15:21:54 51°14.243 2°55.289 140.1 10.2 138 10.5
2007-01-31 15:22:54 51°14.123 2°55.402 156.8 7.5 153 -999
2007-01-31 15:23:54 51°14.004 2°55.498 156.4 8.7 152 -999
2007-01-31 15:24:54 51°13.872 2°55.603 161.1 8.9 157 -999
2007-01-31 15:25:54 51°13.755 2°55.718 143.7 7.1 139 10.9
2007-01-31 15:26:54 51°13.684 2°55.838 132.9 5.7 128 10.1
2007-01-31 15:27:54 51°13.635 2°55.953 124.4 4.7 119 10.7
2007-01-31 15:28:54 51°13.607 2°56.05 117.3 3.5 112 10.2
2007-01-31 15:29:54 51°13.599 2°56.092 111.3 0.4 119 7.5